createdAt,value
2018-09-14T00:01:38.452Z,22.40
2018-09-14T00:04:07.363Z,22.30
2018-09-14T00:06:36.199Z,22.40
2018-09-14T00:09:09.394Z,22.40
2018-09-14T00:11:38.246Z,22.30
2018-09-14T00:14:07.152Z,22.30
2018-09-14T00:16:36.459Z,22.30
2018-09-14T00:19:05.346Z,22.20
2018-09-14T00:21:34.203Z,22.20
2018-09-14T00:24:03.039Z,22.30
2018-09-14T00:26:31.890Z,22.30
2018-09-14T00:29:00.778Z,22.20
2018-09-14T00:31:29.643Z,22.20
2018-09-14T00:33:58.459Z,22.20
2018-09-14T00:36:27.326Z,22.20
2018-09-14T00:38:56.147Z,22.20
2018-09-14T00:41:25.037Z,22.10
2018-09-14T00:43:53.843Z,22.10
2018-09-14T00:46:22.719Z,22.10
2018-09-14T00:48:51.583Z,22.10
2018-09-14T00:51:20.455Z,22.10
2018-09-14T00:53:49.290Z,22.10
2018-09-14T00:56:18.153Z,22.00
2018-09-14T00:58:47.194Z,22.00
2018-09-14T01:01:16.069Z,22.00
2018-09-14T01:03:44.902Z,22.00
2018-09-14T01:06:13.767Z,22.00
2018-09-14T01:08:42.594Z,22.00
2018-09-14T01:11:11.527Z,21.90
2018-09-14T01:13:40.362Z,21.90
2018-09-14T01:16:09.231Z,21.90
2018-09-14T01:18:38.060Z,21.90
2018-09-14T01:21:06.919Z,21.90
2018-09-14T01:23:35.747Z,21.80
2018-09-14T01:26:04.614Z,21.80
2018-09-14T01:28:33.460Z,21.80
2018-09-14T01:31:02.322Z,21.80
2018-09-14T01:33:31.163Z,21.80
2018-09-14T01:36:14.563Z,21.80
2018-09-14T01:38:43.404Z,21.80
2018-09-14T01:41:12.338Z,21.70
2018-09-14T01:43:41.204Z,21.70
2018-09-14T01:46:10.102Z,21.70
2018-09-14T01:48:38.929Z,21.70
2018-09-14T01:51:07.812Z,21.70
2018-09-14T01:53:36.650Z,21.70
2018-09-14T01:56:05.510Z,21.70
2018-09-14T01:58:34.350Z,21.60
2018-09-14T02:01:03.235Z,21.60
2018-09-14T02:03:32.168Z,21.60
2018-09-14T02:06:01.015Z,21.60
2018-09-14T02:08:29.873Z,21.60
2018-09-14T02:10:58.702Z,21.60
2018-09-14T02:13:27.562Z,21.50
2018-09-14T02:15:56.404Z,21.50
2018-09-14T02:18:25.285Z,21.50
2018-09-14T02:20:54.123Z,21.50
2018-09-14T02:23:23.004Z,21.50
2018-09-14T02:25:51.839Z,21.50
2018-09-14T02:28:20.757Z,21.50
2018-09-14T02:30:49.760Z,21.50
2018-09-14T02:33:18.627Z,21.50
2018-09-14T02:35:47.556Z,21.50
2018-09-14T02:38:16.453Z,21.50
2018-09-14T02:40:45.279Z,21.50
2018-09-14T02:43:14.139Z,21.50
2018-09-14T02:45:42.966Z,21.50
2018-09-14T02:48:11.944Z,21.40
2018-09-14T02:50:40.775Z,21.40
2018-09-14T02:53:09.674Z,21.40
2018-09-14T02:55:38.582Z,21.50
2018-09-14T02:58:07.437Z,21.40
2018-09-14T03:00:36.301Z,21.40
2018-09-14T03:03:05.220Z,21.40
2018-09-14T03:05:34.194Z,21.40
2018-09-14T03:08:03.095Z,21.40
2018-09-14T03:10:31.935Z,21.40
2018-09-14T03:13:00.811Z,21.40
2018-09-14T03:15:29.643Z,21.40
2018-09-14T03:17:58.514Z,21.40
2018-09-14T03:20:27.359Z,21.40
2018-09-14T03:22:56.274Z,21.40
2018-09-14T03:25:25.111Z,21.40
2018-09-14T03:27:54.007Z,21.30
2018-09-14T03:30:22.835Z,21.30
2018-09-14T03:32:51.687Z,21.30
2018-09-14T03:35:20.570Z,21.30
2018-09-14T03:37:49.423Z,21.30
2018-09-14T03:40:18.278Z,21.30
2018-09-14T03:42:47.112Z,21.30
2018-09-14T03:45:15.995Z,21.30
2018-09-14T03:47:44.833Z,21.30
2018-09-14T03:50:13.736Z,21.30
2018-09-14T03:52:42.608Z,21.30
2018-09-14T03:55:11.560Z,21.30
2018-09-14T03:57:40.520Z,21.30
2018-09-14T04:00:09.391Z,21.30
2018-09-14T04:02:38.263Z,21.20
2018-09-14T04:05:07.131Z,21.20
2018-09-14T04:07:36.004Z,21.20
2018-09-14T04:10:04.859Z,21.20
2018-09-14T04:12:33.694Z,21.20
2018-09-14T04:15:02.606Z,21.20
2018-09-14T04:17:31.447Z,21.20
2018-09-14T04:20:00.319Z,21.20
2018-09-14T04:22:29.163Z,21.20
2018-09-14T04:24:58.032Z,21.10
2018-09-14T04:27:26.872Z,21.10
2018-09-14T04:29:55.734Z,21.10
2018-09-14T04:32:24.577Z,21.10
2018-09-14T04:34:53.957Z,21.10
2018-09-14T04:37:22.807Z,21.10
2018-09-14T04:39:51.670Z,21.10
2018-09-14T04:42:20.526Z,21.10
2018-09-14T04:44:49.409Z,21.10
2018-09-14T04:47:18.271Z,21.10
2018-09-14T04:49:47.252Z,21.10
2018-09-14T04:52:16.247Z,21.10
2018-09-14T04:54:45.165Z,21.10
2018-09-14T04:57:14.081Z,21.10
2018-09-14T04:59:42.955Z,21.00
2018-09-14T05:02:11.854Z,21.00
2018-09-14T05:04:40.759Z,21.00
2018-09-14T05:07:09.607Z,21.00
2018-09-14T05:09:38.516Z,21.00
2018-09-14T05:12:07.498Z,21.00
2018-09-14T05:14:36.372Z,21.00
2018-09-14T05:17:05.224Z,21.00
2018-09-14T05:19:34.103Z,21.00
2018-09-14T05:22:02.960Z,21.00
2018-09-14T05:24:31.854Z,21.00
2018-09-14T05:27:00.706Z,21.00
2018-09-14T05:29:29.601Z,21.00
2018-09-14T05:31:58.445Z,21.00
2018-09-14T05:34:27.331Z,21.00
2018-09-14T05:36:56.178Z,21.00
2018-09-14T05:39:25.074Z,21.00
2018-09-14T05:41:54.006Z,21.00
2018-09-14T05:44:22.874Z,21.00
2018-09-14T05:46:51.764Z,20.90
2018-09-14T05:49:20.604Z,20.90
2018-09-14T05:51:50.016Z,20.90
2018-09-14T05:54:18.898Z,20.90
2018-09-14T05:56:47.778Z,21.00
2018-09-14T05:59:16.783Z,20.90
2018-09-14T06:01:45.711Z,21.00
2018-09-14T06:04:14.567Z,21.00
2018-09-14T06:06:43.575Z,20.90
2018-09-14T06:09:13.499Z,20.90
2018-09-14T06:11:43.142Z,21.00
2018-09-14T06:14:12.033Z,21.00
2018-09-14T06:16:41.130Z,20.90
2018-09-14T06:19:09.995Z,20.90
2018-09-14T06:21:38.881Z,20.90
2018-09-14T06:24:07.315Z,20.90
2018-09-14T06:26:36.212Z,20.90
2018-09-14T06:29:05.308Z,20.90
2018-09-14T06:31:34.227Z,20.90
2018-09-14T06:34:03.069Z,20.90
2018-09-14T06:36:31.946Z,21.00
2018-09-14T06:39:00.804Z,21.00
2018-09-14T06:41:29.690Z,21.00
2018-09-14T06:43:58.544Z,21.00
2018-09-14T06:46:27.475Z,21.00
2018-09-14T06:48:56.323Z,21.00
2018-09-14T06:51:25.207Z,21.00
2018-09-14T06:53:54.059Z,21.00
2018-09-14T06:56:22.936Z,21.00
2018-09-14T06:58:51.792Z,21.00
2018-09-14T07:01:20.695Z,21.00
2018-09-14T07:03:49.539Z,21.10
2018-09-14T07:06:18.437Z,21.10
2018-09-14T07:08:47.307Z,21.10
2018-09-14T07:11:16.565Z,21.10
2018-09-14T07:13:45.419Z,21.20
2018-09-14T07:16:14.327Z,21.20
2018-09-14T07:18:43.163Z,21.20
2018-09-14T07:21:12.055Z,21.30
2018-09-14T07:23:40.901Z,21.30
2018-09-14T07:26:10.143Z,21.30
2018-09-14T07:28:39.008Z,21.30
2018-09-14T07:31:07.882Z,21.30
2018-09-14T07:33:36.739Z,21.30
2018-09-14T07:36:05.615Z,21.30
2018-09-14T07:38:34.465Z,21.40
2018-09-14T07:41:03.312Z,21.40
2018-09-14T07:43:32.219Z,21.40
2018-09-14T07:46:01.075Z,21.40
2018-09-14T07:48:29.953Z,21.40
2018-09-14T07:50:58.819Z,21.40
2018-09-14T07:53:27.687Z,21.50
2018-09-14T07:55:56.647Z,21.50
2018-09-14T07:58:25.536Z,21.40
2018-09-14T08:00:54.422Z,21.40
2018-09-14T08:03:23.313Z,21.50
2018-09-14T08:05:52.166Z,21.50
2018-09-14T08:08:21.039Z,21.60
2018-09-14T08:10:49.893Z,21.60
2018-09-14T08:13:18.952Z,21.70
2018-09-14T08:15:47.749Z,21.70
2018-09-14T08:18:16.611Z,21.70
2018-09-14T08:20:45.484Z,21.70
2018-09-14T08:23:14.320Z,21.70
2018-09-14T08:25:43.187Z,21.80
2018-09-14T08:28:12.071Z,21.80
2018-09-14T08:30:40.942Z,21.90
2018-09-14T08:33:09.830Z,21.90
2018-09-14T08:35:38.719Z,22.00
2018-09-14T08:38:07.614Z,22.00
2018-09-14T08:40:36.567Z,22.10
2018-09-14T08:43:05.411Z,22.10
2018-09-14T08:45:34.292Z,22.10
2018-09-14T08:48:03.194Z,22.20
2018-09-14T08:50:32.032Z,22.20
2018-09-14T08:53:00.876Z,22.20
2018-09-14T08:55:29.779Z,22.30
2018-09-14T08:57:58.682Z,22.30
2018-09-14T09:00:27.532Z,22.30
2018-09-14T09:02:56.429Z,22.40
2018-09-14T09:05:25.513Z,22.40
2018-09-14T09:07:54.363Z,22.40
2018-09-14T09:10:23.254Z,22.40
2018-09-14T09:12:52.139Z,22.40
2018-09-14T09:15:21.080Z,22.50
2018-09-14T09:17:50.074Z,22.50
2018-09-14T09:20:18.851Z,22.50
2018-09-14T09:22:47.755Z,22.50
2018-09-14T09:25:16.653Z,22.60
2018-09-14T09:27:45.512Z,22.60
2018-09-14T09:30:14.394Z,22.70
2018-09-14T09:32:43.303Z,22.70
2018-09-14T09:35:12.193Z,22.80
2018-09-14T09:37:41.083Z,22.80
2018-09-14T09:40:09.925Z,22.90
2018-09-14T09:42:38.802Z,22.90
2018-09-14T09:45:07.666Z,22.90
2018-09-14T09:47:36.551Z,23.00
2018-09-14T09:50:06.021Z,23.00
2018-09-14T09:52:34.934Z,23.00
2018-09-14T09:55:04.344Z,23.10
2018-09-14T09:57:33.283Z,23.10
2018-09-14T10:00:02.135Z,23.20
2018-09-14T10:02:36.062Z,23.20
2018-09-14T10:05:10.680Z,23.20
2018-09-14T10:07:39.579Z,23.20
2018-09-14T10:10:12.143Z,23.30
2018-09-14T10:12:41.268Z,23.20
2018-09-14T10:15:10.146Z,23.30
2018-09-14T10:17:39.056Z,23.30
2018-09-14T10:20:07.888Z,23.30
2018-09-14T10:22:37.099Z,23.40
2018-09-14T10:25:05.968Z,23.40
2018-09-14T10:27:34.971Z,23.50
2018-09-14T10:30:04.464Z,23.50
2018-09-14T10:32:33.364Z,23.60
2018-09-14T10:35:02.900Z,23.60
2018-09-14T10:37:31.758Z,23.70
2018-09-14T10:40:00.666Z,23.80
2018-09-14T10:42:29.591Z,23.80
2018-09-14T10:44:58.439Z,23.80
2018-09-14T10:47:27.312Z,23.90
2018-09-14T10:49:56.304Z,23.90
2018-09-14T10:52:25.193Z,23.90
2018-09-14T10:54:54.093Z,23.90
2018-09-14T10:57:23.083Z,24.00
2018-09-14T10:59:51.962Z,24.00
2018-09-14T11:02:20.847Z,24.10
2018-09-14T11:04:49.691Z,24.10
2018-09-14T11:07:18.566Z,24.20
2018-09-14T11:09:47.411Z,24.20
2018-09-14T11:12:16.311Z,24.30
2018-09-14T11:14:45.147Z,24.30
2018-09-14T11:17:14.018Z,24.30
2018-09-14T11:19:42.856Z,24.30
2018-09-14T11:22:11.754Z,24.30
2018-09-14T11:24:40.711Z,24.20
2018-09-14T11:27:09.508Z,24.20
2018-09-14T11:29:38.349Z,24.10
2018-09-14T11:32:07.321Z,24.10
2018-09-14T11:34:36.244Z,24.10
2018-09-14T11:37:05.521Z,24.10
2018-09-14T11:39:34.401Z,24.10
2018-09-14T11:42:03.240Z,24.00
2018-09-14T11:44:32.136Z,24.00
2018-09-14T11:47:01.005Z,24.00
2018-09-14T11:49:29.939Z,24.00
2018-09-14T11:51:58.792Z,24.10
2018-09-14T11:54:27.812Z,24.10
2018-09-14T11:56:56.641Z,24.30
2018-09-14T11:59:25.602Z,24.30
2018-09-14T12:01:54.833Z,24.50
2018-09-14T12:04:23.811Z,24.60
2018-09-14T12:06:52.631Z,24.80
2018-09-14T12:09:21.513Z,24.90
2018-09-14T12:11:50.346Z,25.10
2018-09-14T12:14:19.222Z,25.20
2018-09-14T12:16:48.087Z,25.30
2018-09-14T12:19:16.955Z,25.40
2018-09-14T12:21:45.803Z,25.40
2018-09-14T12:24:14.698Z,25.50
2018-09-14T12:26:43.561Z,25.60
2018-09-14T12:29:12.487Z,25.70
2018-09-14T12:31:41.336Z,25.70
2018-09-14T12:34:10.238Z,25.80
2018-09-14T12:36:39.102Z,25.90
2018-09-14T12:39:09.282Z,25.80
2018-09-14T12:41:38.250Z,25.90
2018-09-14T12:44:07.583Z,28.10
2018-09-14T12:46:36.435Z,25.90
2018-09-14T12:49:05.437Z,25.90
2018-09-14T12:51:34.319Z,26.00
2018-09-14T12:54:03.204Z,26.10
2018-09-14T12:56:32.041Z,26.20
2018-09-14T12:59:01.036Z,26.30
2018-09-14T13:01:29.863Z,26.50
2018-09-14T13:03:58.751Z,26.70
2018-09-14T13:06:27.697Z,26.80
2018-09-14T13:08:56.544Z,26.90
2018-09-14T13:11:25.463Z,27.00
2018-09-14T13:13:54.455Z,27.10
2018-09-14T13:16:23.338Z,27.10
2018-09-14T13:18:52.174Z,27.20
2018-09-14T13:21:21.073Z,27.20
2018-09-14T13:23:49.922Z,27.20
2018-09-14T13:26:18.800Z,27.20
2018-09-14T13:28:47.671Z,27.10
2018-09-14T13:31:16.566Z,27.00
2018-09-14T13:33:45.445Z,27.00
2018-09-14T13:36:14.332Z,26.90
2018-09-14T13:38:43.183Z,26.80
2018-09-14T13:41:12.071Z,26.80
2018-09-14T13:43:40.926Z,26.80
2018-09-14T13:46:09.815Z,26.80
2018-09-14T13:48:38.648Z,26.80
2018-09-14T13:51:07.583Z,26.90
2018-09-14T13:53:36.431Z,26.90
2018-09-14T13:56:05.438Z,27.00
2018-09-14T13:58:34.279Z,27.00
2018-09-14T14:01:03.175Z,27.10
2018-09-14T14:03:32.003Z,27.10
2018-09-14T14:06:00.891Z,27.10
2018-09-14T14:08:29.727Z,27.00
2018-09-14T14:10:58.607Z,27.00
2018-09-14T14:13:27.457Z,27.00
2018-09-14T14:15:56.389Z,26.90
2018-09-14T14:18:25.260Z,26.90
2018-09-14T14:20:54.200Z,26.80
2018-09-14T14:23:23.051Z,26.80
2018-09-14T14:25:51.918Z,26.80
2018-09-14T14:28:20.757Z,26.70
2018-09-14T14:30:49.627Z,26.70
2018-09-14T14:33:18.476Z,26.70
2018-09-14T14:35:47.343Z,26.80
2018-09-14T14:38:16.183Z,26.80
2018-09-14T14:40:45.068Z,26.90
2018-09-14T14:43:13.908Z,28.30
2018-09-14T14:45:42.763Z,27.00
2018-09-14T14:48:11.619Z,27.10
2018-09-14T14:50:40.514Z,27.00
2018-09-14T14:53:09.358Z,27.00
2018-09-14T14:55:38.223Z,27.00
2018-09-14T14:58:07.091Z,27.00
2018-09-14T15:00:35.966Z,27.00
2018-09-14T15:03:04.836Z,27.00
2018-09-14T15:05:33.674Z,27.10
2018-09-14T15:08:02.538Z,27.20
2018-09-14T15:10:31.411Z,27.20
2018-09-14T15:13:00.279Z,27.20
2018-09-14T15:15:29.110Z,27.20
2018-09-14T15:17:57.978Z,27.20
2018-09-14T15:20:26.834Z,27.20
2018-09-14T15:22:55.714Z,27.10
2018-09-14T15:25:24.552Z,27.00
2018-09-14T15:27:53.451Z,27.00
2018-09-14T15:30:22.381Z,26.90
2018-09-14T15:32:51.382Z,26.90
2018-09-14T15:35:20.227Z,26.90
2018-09-14T15:37:49.987Z,26.90
2018-09-14T15:40:18.960Z,26.80
2018-09-14T15:42:48.034Z,26.80
2018-09-14T15:45:16.887Z,26.80
2018-09-14T15:47:45.759Z,26.70
2018-09-14T15:50:14.684Z,26.70
2018-09-14T15:52:43.571Z,26.70
2018-09-14T15:55:12.606Z,26.60
2018-09-14T15:57:41.507Z,26.60
2018-09-14T16:00:10.370Z,26.50
2018-09-14T16:02:39.256Z,26.50
2018-09-14T16:05:08.116Z,26.40
2018-09-14T16:07:36.988Z,26.40
2018-09-14T16:10:05.876Z,26.30
2018-09-14T16:12:34.751Z,26.30
2018-09-14T16:15:03.835Z,26.20
2018-09-14T16:17:32.704Z,26.20
2018-09-14T16:20:01.547Z,26.10
2018-09-14T16:22:30.452Z,26.10
2018-09-14T16:24:59.284Z,26.00
2018-09-14T16:27:28.144Z,26.00
2018-09-14T16:29:56.992Z,25.90
2018-09-14T16:32:25.867Z,25.90
2018-09-14T16:34:54.695Z,25.90
2018-09-14T16:37:23.559Z,25.80
2018-09-14T16:39:52.391Z,25.80
2018-09-14T16:42:21.246Z,25.70
2018-09-14T16:44:50.080Z,25.70
2018-09-14T16:47:18.983Z,25.70
2018-09-14T16:49:47.847Z,25.70
2018-09-14T16:52:16.774Z,25.60
2018-09-14T16:54:45.619Z,25.60
2018-09-14T16:57:14.455Z,25.50
2018-09-14T16:59:43.322Z,25.50
2018-09-14T17:02:12.186Z,25.50
2018-09-14T17:04:41.055Z,25.40
2018-09-14T17:07:10.034Z,25.40
2018-09-14T17:09:38.907Z,25.30
2018-09-14T17:12:07.742Z,25.30
2018-09-14T17:14:36.695Z,25.30
2018-09-14T17:17:05.524Z,25.20
2018-09-14T17:19:34.386Z,25.20
2018-09-14T17:22:03.199Z,25.10
2018-09-14T17:24:32.078Z,25.10
2018-09-14T17:27:00.919Z,25.00
2018-09-14T17:29:29.783Z,25.00
2018-09-14T17:31:58.625Z,25.00
2018-09-14T17:34:27.483Z,25.00
2018-09-14T17:36:56.312Z,25.00
2018-09-14T17:39:25.295Z,25.00
2018-09-14T17:41:54.122Z,24.90
2018-09-14T17:44:23.015Z,24.90
2018-09-14T17:46:52.731Z,24.90
2018-09-14T17:49:21.595Z,24.90
2018-09-14T17:51:50.583Z,24.80
2018-09-14T17:54:19.446Z,24.80
2018-09-14T17:56:48.322Z,24.80
2018-09-14T17:59:17.251Z,24.80
2018-09-14T18:01:46.167Z,24.70
2018-09-14T18:04:15.043Z,24.70
2018-09-14T18:06:43.854Z,24.70
2018-09-14T18:09:13.166Z,24.60
2018-09-14T18:11:42.016Z,24.60
2018-09-14T18:14:11.059Z,24.60
2018-09-14T18:16:39.891Z,24.50
2018-09-14T18:19:08.876Z,24.50
2018-09-14T18:21:37.727Z,24.50
2018-09-14T18:24:06.770Z,24.50
2018-09-14T18:26:35.605Z,24.50
2018-09-14T18:29:04.526Z,24.50
2018-09-14T18:31:33.364Z,24.50
2018-09-14T18:34:02.272Z,24.50
2018-09-14T18:36:31.116Z,24.40
2018-09-14T18:39:00.028Z,24.40
2018-09-14T18:41:28.855Z,24.40
2018-09-14T18:43:57.723Z,24.40
2018-09-14T18:46:26.588Z,24.40
2018-09-14T18:48:55.487Z,24.40
2018-09-14T18:51:24.351Z,24.40
2018-09-14T18:53:53.218Z,24.40
2018-09-14T18:56:22.072Z,24.30
2018-09-14T18:58:50.910Z,24.30
2018-09-14T19:01:19.783Z,22.40
2018-09-14T19:03:48.632Z,24.30
2018-09-14T19:06:17.533Z,24.20
2018-09-14T19:08:46.396Z,24.20
2018-09-14T19:11:15.271Z,24.20
2018-09-14T19:13:44.110Z,24.20
2018-09-14T19:16:12.982Z,24.20
2018-09-14T19:18:42.004Z,24.10
2018-09-14T19:21:10.879Z,24.10
2018-09-14T19:23:39.824Z,24.10
2018-09-14T19:26:08.803Z,24.10
2018-09-14T19:28:37.634Z,24.10
2018-09-14T19:31:06.996Z,24.10
2018-09-14T19:33:36.024Z,24.10
2018-09-14T19:36:05.558Z,24.00
2018-09-14T19:38:34.668Z,24.00
2018-09-14T19:41:03.519Z,24.00
2018-09-14T19:43:32.391Z,24.00
2018-09-14T19:46:01.259Z,23.90
2018-09-14T19:48:30.094Z,23.90
2018-09-14T19:50:59.003Z,23.90
2018-09-14T19:53:27.822Z,23.90
2018-09-14T19:55:56.711Z,23.90
2018-09-14T19:58:25.541Z,23.90
2018-09-14T20:00:54.542Z,23.80
2018-09-14T20:03:23.374Z,23.80
2018-09-14T20:05:52.252Z,23.80
2018-09-14T20:08:21.131Z,23.80
2018-09-14T20:10:49.989Z,23.80
2018-09-14T20:13:18.814Z,23.80
2018-09-14T20:15:47.700Z,23.80
2018-09-14T20:18:16.579Z,23.80
2018-09-14T20:20:45.424Z,23.80
2018-09-14T20:23:14.271Z,23.80
2018-09-14T20:25:43.127Z,23.70
2018-09-14T20:28:11.997Z,23.70
2018-09-14T20:30:40.875Z,23.70
2018-09-14T20:33:09.806Z,23.70
2018-09-14T20:35:38.671Z,23.70
2018-09-14T20:38:07.508Z,23.70
2018-09-14T20:40:36.388Z,23.60
2018-09-14T20:43:05.241Z,23.60
2018-09-14T20:45:34.112Z,23.60
2018-09-14T20:48:02.930Z,23.60
2018-09-14T20:50:31.814Z,23.50
2018-09-14T20:53:00.705Z,23.50
2018-09-14T20:55:29.586Z,23.50
2018-09-14T20:57:58.670Z,23.50
2018-09-14T21:00:27.578Z,23.40
2018-09-14T21:02:56.415Z,23.40
2018-09-14T21:05:25.290Z,23.40
2018-09-14T21:07:54.106Z,23.40
2018-09-14T21:10:22.979Z,23.30
2018-09-14T21:12:51.825Z,23.30
2018-09-14T21:15:20.715Z,23.30
2018-09-14T21:17:49.551Z,23.30
2018-09-14T21:20:18.438Z,23.20
2018-09-14T21:22:47.415Z,23.20
2018-09-14T21:25:16.158Z,23.20
2018-09-14T21:27:44.992Z,23.10
2018-09-14T21:30:13.888Z,23.10
2018-09-14T21:32:42.803Z,23.10
2018-09-14T21:35:11.664Z,23.00
2018-09-14T21:37:40.535Z,23.00
2018-09-14T21:40:09.471Z,22.90
2018-09-14T21:42:38.348Z,22.90
2018-09-14T21:45:07.202Z,22.80
2018-09-14T21:47:36.088Z,22.80
2018-09-14T21:50:05.055Z,22.80
2018-09-14T21:52:33.974Z,22.70
2018-09-14T21:55:02.892Z,22.70
2018-09-14T21:57:31.831Z,22.70
2018-09-14T22:00:04.801Z,22.70
2018-09-14T22:02:33.662Z,22.70
2018-09-14T22:05:02.487Z,22.60
2018-09-14T22:07:31.362Z,22.60
2018-09-14T22:10:00.200Z,22.60
2018-09-14T22:12:29.070Z,22.60
2018-09-14T22:14:57.914Z,22.60
2018-09-14T22:17:26.790Z,22.50
2018-09-14T22:19:55.646Z,22.50
2018-09-14T22:22:24.542Z,22.50
2018-09-14T22:24:53.603Z,22.50
2018-09-14T22:27:22.491Z,22.50
2018-09-14T22:29:51.311Z,22.40
2018-09-14T22:32:20.215Z,22.40
2018-09-14T22:34:49.165Z,22.30
2018-09-14T22:37:18.031Z,22.30
2018-09-14T22:39:46.875Z,22.30
2018-09-14T22:42:15.732Z,22.30
2018-09-14T22:44:44.559Z,22.20
2018-09-14T22:47:13.498Z,22.20
2018-09-14T22:49:42.329Z,22.20
2018-09-14T22:52:11.266Z,22.20
2018-09-14T22:54:40.195Z,22.20
2018-09-14T22:57:09.079Z,22.20
2018-09-14T22:59:37.928Z,22.20
2018-09-14T23:02:06.795Z,22.10
2018-09-14T23:04:35.660Z,22.10
2018-09-14T23:07:04.549Z,22.10
2018-09-14T23:09:33.395Z,22.10
2018-09-14T23:12:02.367Z,22.10
2018-09-14T23:14:31.201Z,22.00
2018-09-14T23:17:00.079Z,22.00
2018-09-14T23:19:28.918Z,22.00
2018-09-14T23:21:57.804Z,22.00
2018-09-14T23:24:26.645Z,21.90
2018-09-14T23:26:55.595Z,21.90
2018-09-14T23:29:24.436Z,21.90
2018-09-14T23:31:53.309Z,21.90
2018-09-14T23:34:22.175Z,21.90
2018-09-14T23:36:51.142Z,21.90
2018-09-14T23:39:19.954Z,21.90
2018-09-14T23:41:48.811Z,21.90
2018-09-14T23:44:17.637Z,21.90
2018-09-14T23:46:46.458Z,21.90
2018-09-14T23:49:15.327Z,21.90
2018-09-14T23:51:44.199Z,21.90
2018-09-14T23:54:13.092Z,21.90
2018-09-14T23:56:41.912Z,21.90
2018-09-14T23:59:10.777Z,21.90
